This is the latest recevied weather packets stored in our database for station/object LEAS. If no packets are shown the sender has not sent any weather packets the latest 10 day(s).
| Time | Temp. | Humidity | Pressure | Rain* | Wind** | Luminosity | Snow |
|---|---|---|---|---|---|---|---|
| 1787601603 | 18.89° C | 100% | 1008 hPa | - | - | - | - |
| 1787598003 | 20° C | 93% | 1007 hPa | - | - | - | - |
| 1787597103 | 20° C | 93% | 1007 hPa | - | - | - | - |
| 1787596203 | 20° C | 100% | 1007 hPa | - | - | - | - |
| 1787594403 | 20° C | 93% | 1007 hPa | - | - | - | - |
| 1787593503 | 20° C | 93% | 1007 hPa | - | - | - | - |
| 1787592604 | 20° C | 93% | 1008 hPa | - | - | - | - |
| 1787590802 | 20° C | 93% | 1008 hPa | - | - | - | - |
| 1787588103 | 21.11° C | 94% | 1009 hPa | - | - | - | - |
| 1787586303 | 21.11° C | 94% | 1009 hPa | - | - | - | - |
| 1787584504 | 22.22° C | 88% | 1008 hPa | - | - | - | - |
| 1787579103 | 25° C | 69% | 1008 hPa | - | - | - | - |
| 1787578203 | 23.89° C | 78% | 1008 hPa | - | - | - | - |
| 1787577303 | 23.89° C | 78% | 1008 hPa | - | - | - | - |
| 1787576403 | 25° C | 69% | 1008 hPa | - | - | - | - |
| 1787575503 | 25° C | 69% | 1008 hPa | - | - | - | - |
| 1787574604 | 23.89° C | 73% | 1008 hPa | - | - | - | - |
| 1787572803 | 23.89° C | 73% | 1008 hPa | - | - | - | - |
| 1787571903 | 23.89° C | 73% | 1008 hPa | - | - | - | - |
| 1787571003 | 23.89° C | 73% | 1009 hPa | - | - | - | - |
| 1787570102 | 23.89° C | 73% | 1009 hPa | - | - | - | - |
| 1787565603 | 22.22° C | 88% | 1008 hPa | - | - | - | - |
| 1787564703 | 22.22° C | 88% | 1008 hPa | - | - | - | - |
| 1787562004 | 20° C | 88% | 1009 hPa | - | - | - | - |
| 1787561104 | 20° C | 88% | 1009 hPa | - | - | - | - |
* Rain since midnight (hover to see other rain measurements)
** Current wind speed in m/s (hover to see current wind gust speed)